Time;durP1;ratioP1;P1;durP2;ratioP2;P2;SDS_P1;SDS_P2;PMS_P1;PMS_P2;Temp;Humidity;BMP_temperature;BMP_pressure;BME280_temperature;BME280_humidity;BME280_pressure;Samples;Min_cycle;Max_cycle;Signal;HPM_P1;HPM_P2
2022/06/03 00:02:19;;;;;;;13.30;8.55;;;9.30;93.00;;;;;;6246849;23;20296;-78
2022/06/03 00:05:06;;;;;;;12.70;8.20;;;9.30;92.50;;;;;;6221706;23;20373;-78
2022/06/03 00:08:02;;;;;;;14.38;8.60;;;9.30;92.80;;;;;;6221393;23;20039;-76
2022/06/03 00:10:40;;;;;;;16.75;8.35;;;9.20;92.80;;;;;;6246989;23;20019;-78
2022/06/03 00:13:37;;;;;;;12.82;8.23;;;9.20;92.80;;;;;;6246892;23;20048;-78
2022/06/03 00:16:03;;;;;;;12.25;7.85;;;9.10;92.60;;;;;;6221025;23;20091;-76
2022/06/03 00:18:35;;;;;;;13.63;8.10;;;9.10;92.60;;;;;;6221522;23;20055;-77
2022/06/03 00:21:02;;;;;;;12.93;8.32;;;9.00;93.40;;;;;;6221082;23;20012;-76
2022/06/03 00:23:51;;;;;;;11.82;7.93;;;9.10;93.00;;;;;;6246440;23;20019;-78
2022/06/03 00:26:52;;;;;;;11.20;8.13;;;9.00;93.40;;;;;;6246268;23;20004;-77
2022/06/03 00:29:24;;;;;;;12.65;8.52;;;9.00;93.60;;;;;;6246372;23;20361;-76
2022/06/03 00:32:13;;;;;;;12.23;8.20;;;8.90;94.20;;;;;;6246466;23;20094;-77
2022/06/03 00:35:31;;;;;;;16.95;10.23;;;8.90;94.20;;;;;;6221107;23;20023;-77
2022/06/03 00:38:20;;;;;;;14.93;9.18;;;8.90;94.60;;;;;;6101220;23;20337;-78
2022/06/03 00:40:55;;;;;;;12.93;9.20;;;8.90;94.50;;;;;;6214124;23;20016;-77
2022/06/03 00:43:42;;;;;;;13.93;9.38;;;8.90;94.00;;;;;;6245983;23;20457;-76
2022/06/03 00:46:41;;;;;;;16.27;9.40;;;8.90;94.70;;;;;;6246277;23;20019;-77
2022/06/03 00:49:36;;;;;;;13.40;8.75;;;8.80;94.40;;;;;;6246650;23;20012;-77
2022/06/03 00:52:20;;;;;;;14.48;8.88;;;8.80;94.40;;;;;;6115379;22;20022;-76
2022/06/03 00:55:29;;;;;;;16.52;8.85;;;8.90;94.50;;;;;;6219190;23;20385;-76
2022/06/03 00:58:38;;;;;;;14.93;9.80;;;8.80;94.10;;;;;;6175765;23;20019;-77
2022/06/03 01:01:03;;;;;;;12.82;9.48;;;8.80;95.00;;;;;;6220886;23;20019;-76
2022/06/03 01:03:58;;;;;;;12.10;8.83;;;8.80;94.70;;;;;;6246283;23;20518;-75
2022/06/03 01:06:39;;;;;;;11.93;8.68;;;8.80;94.60;;;;;;6220905;23;20099;-77
2022/06/03 01:09:32;;;;;;;18.65;8.95;;;8.70;94.20;;;;;;6245527;23;20430;-78
2022/06/03 01:12:06;;;;;;;15.38;8.82;;;8.70;94.40;;;;;;6245745;23;20016;-77
2022/06/03 01:14:35;;;;;;;15.55;9.68;;;8.70;94.40;;;;;;6220995;23;20099;-78
2022/06/03 01:17:30;;;;;;;14.80;9.75;;;8.70;94.50;;;;;;6246204;23;20495;-77
2022/06/03 01:20:03;;;;;;;12.18;8.73;;;8.60;94.70;;;;;;6220992;23;20015;-77
2022/06/03 01:22:47;;;;;;;15.10;9.50;;;8.60;94.90;;;;;;6245849;23;20303;-76
2022/06/03 01:25:45;;;;;;;17.08;8.90;;;8.50;95.10;;;;;;6220378;23;20011;-78
2022/06/03 01:28:24;;;;;;;15.20;9.25;;;8.50;94.80;;;;;;6238034;23;20007;-77
2022/06/03 01:31:13;;;;;;;12.10;8.70;;;8.50;94.30;;;;;;6220661;23;20015;-75
2022/06/03 01:33:41;;;;;;;11.95;8.73;;;8.50;94.80;;;;;;6220756;23;20004;-76
2022/06/03 01:36:35;;;;;;;11.07;7.95;;;8.40;94.80;;;;;;6246025;23;20012;-76
2022/06/03 01:39:19;;;;;;;12.55;8.70;;;8.50;94.50;;;;;;6245927;23;20019;-76
2022/06/03 01:42:15;;;;;;;15.38;8.68;;;8.50;94.00;;;;;;6245393;23;20012;-78
2022/06/03 01:44:53;;;;;;;17.48;9.32;;;8.50;94.20;;;;;;6245113;23;20008;-76
2022/06/03 01:47:25;;;;;;;15.75;9.00;;;8.50;94.70;;;;;;6245542;23;20008;-76
2022/06/03 01:50:26;;;;;;;17.40;9.30;;;8.50;94.50;;;;;;6220707;23;20012;-78
2022/06/03 01:53:30;;;;;;;14.35;8.65;;;8.50;94.90;;;;;;6246255;23;20016;-77
2022/06/03 01:56:11;;;;;;;11.77;8.63;;;8.50;94.00;;;;;;6220011;23;20023;-77
2022/06/03 01:59:06;;;;;;;16.67;9.10;;;8.50;94.20;;;;;;6245838;23;20322;-77
2022/06/03 02:01:56;;;;;;;15.88;9.38;;;8.50;94.10;;;;;;6220409;23;20047;-78
2022/06/03 02:04:40;;;;;;;13.70;9.27;;;8.50;94.20;;;;;;6220272;23;20012;-76
2022/06/03 02:08:00;;;;;;;14.80;9.10;;;8.50;94.60;;;;;;6245492;23;20074;-78
2022/06/03 02:10:38;;;;;;;12.23;8.50;;;8.50;94.70;;;;;;6220356;23;20323;-76
2022/06/03 02:13:34;;;;;;;15.35;9.25;;;8.50;94.30;;;;;;6245798;23;20012;-77
2022/06/03 02:16:22;;;;;;;14.65;9.38;;;8.40;94.30;;;;;;6220402;23;20095;-77
2022/06/03 02:19:35;;;;;;;16.20;8.82;;;8.40;94.40;;;;;;6246005;23;20419;-76
2022/06/03 02:22:32;;;;;;;18.45;8.68;;;8.30;94.70;;;;;;6232041;23;20019;-76
2022/06/03 02:25:17;;;;;;;12.02;8.63;;;8.30;94.30;;;;;;6220146;23;20016;-76
2022/06/03 02:28:02;;;;;;;13.18;8.55;;;8.30;94.30;;;;;;6219317;23;20016;-78
2022/06/03 02:30:43;;;;;;;14.13;9.02;;;8.40;94.60;;;;;;6220001;23;20046;-76
2022/06/03 02:33:30;;;;;;;14.13;9.02;;;8.10;94.60;;;;;;6244864;23;20011;-76
2022/06/03 02:36:19;;;;;;;13.10;9.67;;;8.10;94.50;;;;;;6244227;23;20047;-77
2022/06/03 02:39:10;;;;;;;13.85;9.07;;;8.10;94.40;;;;;;6220189;23;20048;-76
2022/06/03 02:41:54;;;;;;;14.35;8.88;;;8.00;94.10;;;;;;6220315;23;20019;-76
2022/06/03 02:44:38;;;;;;;12.70;8.88;;;8.00;94.00;;;;;;6219971;23;20434;-76
2022/06/03 02:47:25;;;;;;;11.45;8.93;;;8.10;93.80;;;;;;6245362;23;20008;-77
2022/06/03 02:50:13;;;;;;;12.65;9.65;;;8.10;94.40;;;;;;6245218;23;20012;-77
2022/06/03 02:53:12;;;;;;;20.20;10.82;;;8.30;94.50;;;;;;6220021;23;20027;-76
2022/06/03 02:55:43;;;;;;;16.27;9.95;;;8.30;94.90;;;;;;6219727;23;20016;-78
2022/06/03 02:58:30;;;;;;;15.75;10.65;;;8.40;94.20;;;;;;6244595;23;20017;-78
2022/06/03 03:01:05;;;;;;;18.10;10.53;;;8.40;94.40;;;;;;6219933;23;20020;-78
2022/06/03 03:04:08;;;;;;;17.98;9.90;;;8.50;95.00;;;;;;6219238;23;20016;-75
2022/06/03 03:06:42;;;;;;;18.40;10.73;;;8.50;94.00;;;;;;6219310;23;20013;-77
2022/06/03 03:09:27;;;;;;;15.50;10.80;;;8.50;94.70;;;;;;6245147;23;20081;-76
2022/06/03 03:12:12;;;;;;;16.00;10.95;;;8.50;94.70;;;;;;6219666;23;20438;-76
2022/06/03 03:14:37;;;;;;;18.55;10.70;;;8.50;95.60;;;;;;6219880;23;20008;-76
2022/06/03 03:17:26;;;;;;;18.47;9.73;;;8.50;95.00;;;;;;6219497;23;20271;-77
2022/06/03 03:20:07;;;;;;;12.05;9.68;;;8.50;95.10;;;;;;6220098;23;20106;-76
2022/06/03 03:23:05;;;;;;;12.90;9.57;;;8.50;94.10;;;;;;6219650;23;20439;-78
2022/06/03 03:25:56;;;;;;;15.10;9.60;;;8.60;94.60;;;;;;6169012;23;20008;-77
2022/06/03 03:28:46;;;;;;;16.50;10.60;;;8.50;94.10;;;;;;6219751;23;20023;-78
2022/06/03 03:31:30;;;;;;;19.23;10.40;;;8.50;94.30;;;;;;6245404;23;20062;-78
2022/06/03 03:33:59;;;;;;;15.30;10.82;;;8.60;95.00;;;;;;6219298;23;20058;-76
2022/06/03 03:36:39;;;;;;;16.38;10.95;;;8.60;94.80;;;;;;6219573;23;20084;-77
2022/06/03 03:39:23;;;;;;;16.83;10.30;;;8.50;94.50;;;;;;6219586;23;20048;-76
2022/06/03 03:42:13;;;;;;;17.73;10.43;;;8.60;94.20;;;;;;6244864;23;20008;-78
2022/06/03 03:45:09;;;;;;;18.83;10.55;;;8.60;94.60;;;;;;6218882;23;20016;-76
2022/06/03 03:48:12;;;;;;;15.30;9.80;;;8.60;94.60;;;;;;6219507;23;20016;-76
2022/06/03 03:50:50;;;;;;;14.02;9.93;;;8.60;94.20;;;;;;6219482;23;20051;-78
2022/06/03 03:53:29;;;;;;;16.60;10.25;;;8.60;94.60;;;;;;6245089;23;20369;-76
2022/06/03 03:56:32;;;;;;;17.40;10.35;;;8.60;94.40;;;;;;6245046;23;20074;-76
2022/06/03 03:59:09;;;;;;;13.50;9.60;;;8.60;94.80;;;;;;6219801;23;20415;-77
2022/06/03 04:02:08;;;;;;;15.85;10.30;;;8.70;94.30;;;;;;6218946;23;20043;-77
2022/06/03 04:05:12;;;;;;;12.95;9.02;;;8.70;95.30;;;;;;6244631;23;20012;-76
2022/06/03 04:07:50;;;;;;;13.18;9.40;;;8.90;94.80;;;;;;6169083;23;20016;-78
2022/06/03 04:10:39;;;;;;;15.07;10.27;;;9.00;94.80;;;;;;6245046;23;20008;-76
2022/06/03 04:13:35;;;;;;;15.10;10.30;;;9.20;94.70;;;;;;6219497;23;20087;-76
2022/06/03 04:16:59;;;;;;;18.42;9.52;;;9.40;94.30;;;;;;6217904;23;20059;-76
2022/06/03 04:19:49;;;;;;;13.52;9.60;;;9.50;93.60;;;;;;6099224;23;20508;-76
2022/06/03 04:22:34;;;;;;;12.52;9.13;;;9.50;93.70;;;;;;6074981;23;20021;-76
2022/06/03 04:25:07;;;;;;;14.55;9.77;;;9.40;93.70;;;;;;6210005;23;20019;-78
2022/06/03 04:27:41;;;;;;;13.35;9.93;;;9.40;94.10;;;;;;6244482;23;20016;-78
2022/06/03 04:30:34;;;;;;;15.73;10.00;;;9.40;94.40;;;;;;6219395;23;20373;-78
2022/06/03 04:33:15;;;;;;;14.45;9.93;;;9.40;94.10;;;;;;6219216;23;20066;-78
2022/06/03 04:36:30;;;;;;;16.25;10.38;;;9.40;94.20;;;;;;6219041;23;20101;-77
2022/06/03 04:39:26;;;;;;;17.33;9.88;;;9.50;94.30;;;;;;6244355;23;20012;-78
2022/06/03 04:42:07;;;;;;;16.17;9.55;;;9.60;94.10;;;;;;6244870;23;20445;-76
2022/06/03 04:44:42;;;;;;;13.13;9.88;;;9.70;93.90;;;;;;6220395;23;20027;-78
2022/06/03 04:47:47;;;;;;;14.43;9.40;;;9.90;93.90;;;;;;6245946;23;20012;-78
2022/06/03 04:50:31;;;;;;;16.02;9.60;;;10.00;93.70;;;;;;6245860;23;20091;-78
2022/06/03 04:53:38;;;;;;;15.45;8.95;;;10.20;93.60;;;;;;6246279;23;20012;-77
2022/06/03 04:56:29;;;;;;;12.10;8.57;;;10.40;93.30;;;;;;6245963;23;20008;-77
2022/06/03 04:59:47;;;;;;;14.43;9.30;;;10.70;93.00;;;;;;6176488;23;20016;-78
2022/06/03 05:02:31;;;;;;;11.90;8.93;;;11.00;93.00;;;;;;6220615;23;20023;-78
2022/06/03 05:05:06;;;;;;;18.08;10.00;;;11.30;92.10;;;;;;6245931;23;20020;-77
2022/06/03 05:08:04;;;;;;;17.50;10.20;;;11.50;92.00;;;;;;6245700;23;20016;-77
2022/06/03 05:10:39;;;;;;;;;;;11.70;91.90;;;;;;6171181;23;20019;-78
2022/06/03 05:13:36;;;;;;;19.63;11.27;;;11.90;90.90;;;;;;6220909;23;19911;-83
2022/06/03 05:16:23;;;;;;;19.55;11.52;;;11.90;90.80;;;;;;6221311;23;20330;-79
2022/06/03 05:18:52;;;;;;;18.23;10.55;;;11.90;90.40;;;;;;6246227;23;20016;-79
2022/06/03 05:21:36;;;;;;;18.33;10.38;;;11.90;90.40;;;;;;6220988;23;20015;-79
2022/06/03 05:24:33;;;;;;;13.20;8.95;;;11.90;90.70;;;;;;6220875;23;20117;-77
2022/06/03 05:27:17;;;;;;;16.10;8.93;;;11.90;90.50;;;;;;6221029;23;20008;-79
2022/06/03 05:29:56;;;;;;;13.07;8.90;;;12.00;90.30;;;;;;6245903;23;20078;-79
2022/06/03 05:32:31;;;;;;;13.68;8.60;;;12.10;90.20;;;;;;6220471;23;20423;-78
2022/06/03 05:35:14;;;;;;;14.95;8.77;;;12.20;90.10;;;;;;6245461;23;20314;-77
2022/06/03 05:38:34;;;;;;;12.07;8.80;;;12.20;90.10;;;;;;6246024;23;20082;-78
2022/06/03 05:41:00;;;;;;;17.77;8.75;;;12.30;88.90;;;;;;6100450;23;20092;-78
2022/06/03 05:44:03;;;;;;;15.68;9.23;;;12.40;89.80;;;;;;6189418;23;20073;-79
2022/06/03 05:46:53;;;;;;;12.95;8.73;;;12.50;89.20;;;;;;6220704;23;20318;-77
2022/06/03 05:49:33;;;;;;;18.75;8.77;;;12.70;88.10;;;;;;6246079;23;20044;-79
2022/06/03 05:52:34;;;;;;;11.80;7.13;;;12.70;87.30;;;;;;6220868;23;20008;-78
2022/06/03 05:55:10;;;;;;;10.60;7.20;;;13.00;86.10;;;;;;6244158;23;20057;-80
2022/06/03 05:58:08;;;;;;;11.43;7.38;;;13.10;85.60;;;;;;6246051;23;20008;-73
2022/06/03 06:01:00;;;;;;;9.18;6.15;;;13.20;84.70;;;;;;6245928;23;20009;-79
2022/06/03 06:03:53;;;;;;;9.60;6.10;;;13.30;83.00;;;;;;6220573;23;20018;-78
2022/06/03 06:06:46;;;;;;;9.68;6.00;;;13.50;82.40;;;;;;6220588;23;20051;-78
2022/06/03 06:09:37;;;;;;;12.07;5.15;;;13.60;82.70;;;;;;6220455;23;20004;-81
2022/06/03 06:12:27;;;;;;;9.40;5.28;;;13.70;79.90;;;;;;6238177;23;20019;-73
2022/06/03 06:15:20;;;;;;;8.77;4.82;;;13.90;80.50;;;;;;6219646;23;20300;-77
2022/06/03 06:18:26;;;;;;;7.97;5.10;;;14.10;79.50;;;;;;6219720;23;20092;-77
2022/06/03 06:21:12;;;;;;;10.20;4.05;;;14.30;77.00;;;;;;6219720;23;20499;-76
2022/06/03 06:23:39;;;;;;;8.77;3.97;;;14.50;76.40;;;;;;6219906;23;20066;-79
2022/06/03 06:26:16;;;;;;;4.97;3.13;;;14.70;74.10;;;;;;6220079;23;20004;-81
2022/06/03 06:29:27;;;;;;;7.47;3.72;;;14.90;74.20;;;;;;6220381;23;20015;-74
2022/06/03 06:32:33;;;;;;;8.77;2.90;;;15.00;73.50;;;;;;6219884;23;20335;-79
2022/06/03 06:35:36;;;;;;;4.93;2.10;;;15.10;72.00;;;;;;6219720;23;20074;-81
2022/06/03 06:38:23;;;;;;;5.05;2.13;;;15.30;69.70;;;;;;6219886;23;20008;-77
2022/06/03 06:41:16;;;;;;;4.25;2.50;;;15.30;66.90;;;;;;6220373;23;20457;-80
2022/06/03 06:44:09;;;;;;;4.20;2.60;;;15.50;67.90;;;;;;6220461;23;20366;-81
2022/06/03 06:46:58;;;;;;;6.10;2.50;;;15.70;68.50;;;;;;6219297;23;20004;-80
2022/06/03 06:49:38;;;;;;;3.78;2.78;;;16.00;68.90;;;;;;6245013;23;20008;-81
2022/06/03 06:52:04;;;;;;;6.13;2.58;;;16.30;67.80;;;;;;6220700;23;20008;-81
2022/06/03 06:54:29;;;;;;;3.85;2.33;;;16.10;65.90;;;;;;6220347;23;20369;-81
2022/06/03 06:57:14;;;;;;;6.00;2.53;;;16.20;66.80;;;;;;6220088;23;20323;-81
2022/06/03 07:00:06;;;;;;;5.50;2.72;;;16.20;66.80;;;;;;6245560;23;20431;-81
2022/06/03 07:02:40;;;;;;;5.93;2.55;;;16.30;66.20;;;;;;6204182;23;20012;-83
2022/06/03 07:05:12;;;;;;;4.60;2.92;;;16.30;66.40;;;;;;6245206;23;20004;-81
2022/06/03 07:08:09;;;;;;;6.18;2.70;;;16.50;66.30;;;;;;6219427;23;20050;-81
2022/06/03 07:10:51;;;;;;;4.75;2.20;;;16.50;65.00;;;;;;6219711;23;20320;-82
2022/06/03 07:13:36;;;;;;;4.32;2.60;;;16.70;64.00;;;;;;6219423;23;20030;-81
2022/06/03 07:16:10;;;;;;;3.25;2.25;;;16.80;64.50;;;;;;6219805;23;20008;-81
2022/06/03 07:22:13;;;;;;;4.38;2.38;;;16.90;65.20;;;;;;6245023;23;20164;-76
2022/06/03 07:24:51;;;;;;;5.07;2.60;;;17.10;64.90;;;;;;6219497;23;20457;-75
2022/06/03 07:27:26;;;;;;;7.32;2.40;;;17.30;65.00;;;;;;6245299;23;20012;-77
2022/06/03 08:18:08;;;;;;;4.20;2.05;;;18.80;58.50;;;;;;6274112;22;20015;-75
2022/06/03 08:20:48;;;;;;;3.78;2.30;;;18.90;58.60;;;;;;6275671;22;20015;-76
2022/06/03 08:23:19;;;;;;;3.80;1.98;;;18.50;57.30;;;;;;6247871;22;20069;-76
2022/06/03 08:25:48;;;;;;;4.05;2.05;;;18.50;59.50;;;;;;6263323;22;20011;-76
2022/06/03 08:28:20;;;;;;;7.13;2.53;;;18.60;60.10;;;;;;6219637;23;20065;-75
2022/06/03 08:30:50;;;;;;;7.63;2.35;;;18.80;60.00;;;;;;6245486;23;20020;-75
2022/06/03 08:34:02;;;;;;;7.28;2.30;;;18.60;58.70;;;;;;6220328;23;20096;-79
2022/06/03 08:36:36;;;;;;;4.05;2.33;;;18.90;59.50;;;;;;6222117;23;20423;-74
2022/06/03 08:39:06;;;;;;;4.20;2.42;;;18.90;59.30;;;;;;6220932;23;20016;-76
2022/06/03 08:42:03;;;;;;;3.35;2.25;;;19.10;58.60;;;;;;6221669;23;20009;-74
2022/06/03 08:44:34;;;;;;;5.50;2.42;;;19.10;58.80;;;;;;6221355;23;20008;-75
2022/06/03 08:47:21;;;;;;;4.43;2.40;;;19.30;60.10;;;;;;6246204;22;20066;-74
2022/06/03 08:50:07;;;;;;;6.00;2.65;;;19.40;58.20;;;;;;6246479;23;20426;-75
2022/06/03 08:52:56;;;;;;;4.97;2.20;;;19.40;59.40;;;;;;6221389;23;20012;-75
2022/06/03 08:55:46;;;;;;;4.97;2.20;;;19.40;57.80;;;;;;6246740;22;20012;-75
2022/06/03 08:58:36;;;;;;;6.65;2.08;;;19.40;57.60;;;;;;6201481;23;20099;-79
2022/06/03 09:02:08;;;;;;;;;;;;;;;;;;;;;
2022/06/03 09:08:46;;;;;;;8.37;2.20;;;19.50;58.20;;;;;;6237449;23;20012;-80
2022/06/03 09:11:30;;;;;;;8.32;2.58;;;19.60;58.20;;;;;;6221615;23;20019;-75
2022/06/03 09:14:05;;;;;;;3.22;2.20;;;19.70;58.50;;;;;;6220994;23;20154;-73
2022/06/03 09:16:34;;;;;;;4.25;2.50;;;19.90;58.20;;;;;;6245777;22;20018;-74
2022/06/03 09:19:17;;;;;;;4.25;2.42;;;19.80;57.70;;;;;;6220518;23;20012;-74
2022/06/03 09:21:48;;;;;;;5.18;2.40;;;19.70;58.30;;;;;;6220953;23;20326;-75
2022/06/03 09:24:18;;;;;;;3.83;2.15;;;20.00;58.30;;;;;;6246160;23;20013;-75
2022/06/03 09:26:49;;;;;;;5.70;2.53;;;20.10;57.70;;;;;;6220762;23;20016;-75
2022/06/03 09:29:16;;;;;;;3.65;2.60;;;20.50;57.80;;;;;;6246539;23;20453;-72
2022/06/03 09:32:00;;;;;;;3.67;2.10;;;20.30;55.60;;;;;;6245747;23;20016;-73
2022/06/03 09:34:49;;;;;;;4.93;2.45;;;20.40;58.10;;;;;;6220740;23;20019;-71
2022/06/03 09:37:23;;;;;;;5.20;2.28;;;20.20;57.10;;;;;;6220775;23;20019;-70
2022/06/03 09:39:51;;;;;;;6.45;2.72;;;20.60;57.00;;;;;;6220343;23;20043;-71
2022/06/03 09:42:21;;;;;;;6.40;2.30;;;20.40;55.00;;;;;;6245352;23;20442;-71
2022/06/03 09:44:49;;;;;;;5.13;2.60;;;20.70;55.30;;;;;;6220839;23;20023;-78
2022/06/03 09:47:25;;;;;;;4.38;2.30;;;20.40;56.90;;;;;;6245286;22;20114;-79
2022/06/03 09:50:15;;;;;;;3.95;2.20;;;20.70;55.40;;;;;;6219823;23;20008;-76
2022/06/03 09:56:32;;;;;;;4.65;2.47;;;20.70;56.50;;;;;;6105764;23;20039;-76
2022/06/03 10:02:56;;;;;;;4.20;2.20;;;20.30;54.90;;;;;;6172114;23;20049;-81
2022/06/03 10:30:05;;;;;;;4.97;2.00;;;20.80;54.50;;;;;;5957460;24;20024;-76
2022/06/03 10:36:21;;;;;;;3.47;2.20;;;20.80;55.30;;;;;;5979824;23;20031;-72
2022/06/03 10:39:02;;;;;;;2.85;1.70;;;21.10;53.70;;;;;;5951755;24;20020;-74
2022/06/03 10:42:01;;;;;;;3.53;2.05;;;21.30;54.40;;;;;;6013768;23;20058;-77
2022/06/03 11:25:45;;;;;;;5.70;2.72;;;20.80;58.90;;;;;;6148048;23;20024;-74
2022/06/03 11:28:16;;;;;;;4.90;2.38;;;20.70;60.00;;;;;;6139408;23;20008;-74
2022/06/03 12:03:09;;;;;;;7.80;3.42;;;21.40;57.10;;;;;;6278322;22;20038;-79
2022/06/03 13:09:56;;;;;;;8.43;2.13;;;21.60;56.70;;;;;;6246634;23;20427;-70
2022/06/03 13:12:42;;;;;;;6.18;2.55;;;21.60;56.00;;;;;;6244455;23;20018;-72
2022/06/03 13:15:20;;;;;;;3.83;1.90;;;21.40;57.70;;;;;;6219452;23;20008;-70
2022/06/03 13:21:02;;;;;;;4.22;1.52;;;21.60;55.50;;;;;;6178329;23;20020;-71
2022/06/03 13:23:31;;;;;;;5.57;1.75;;;21.50;55.70;;;;;;6244353;23;20012;-69
2022/06/03 13:26:27;;;;;;;8.45;1.80;;;21.40;56.80;;;;;;6245706;22;20020;-71
2022/06/03 13:29:06;;;;;;;5.00;1.20;;;21.70;55.90;;;;;;6218962;23;20012;-71
2022/06/03 13:31:56;;;;;;;4.28;1.20;;;21.60;52.60;;;;;;6218458;23;20004;-71
2022/06/03 13:34:58;;;;;;;5.05;1.80;;;21.60;52.80;;;;;;6220822;23;20019;-77
2022/06/03 13:38:00;;;;;;;5.97;1.67;;;21.50;53.30;;;;;;6191317;23;20069;-74
2022/06/03 13:47:09;;;;;;;3.05;1.20;;;21.10;52.90;;;;;;6236985;22;20441;-74
2022/06/03 13:50:19;;;;;;;7.88;1.25;;;21.50;51.60;;;;;;6225662;23;20036;-74
2022/06/03 13:53:07;;;;;;;1.38;1.02;;;21.40;50.90;;;;;;6099882;23;20049;-75
2022/06/03 13:56:02;;;;;;;3.03;1.10;;;21.40;51.60;;;;;;6041931;23;20026;-74
2022/06/03 13:58:40;;;;;;;4.18;1.13;;;21.60;51.70;;;;;;6158678;23;20016;-73
2022/06/03 14:01:29;;;;;;;4.18;0.93;;;21.80;51.00;;;;;;6159017;23;20043;-74
2022/06/03 14:34:18;;;;;;;1.65;0.65;;;21.80;47.50;;;;;;6229325;22;20019;-76
2022/06/03 14:36:49;;;;;;;2.00;0.60;;;21.80;46.40;;;;;;6233511;23;20019;-76
2022/06/03 14:39:45;;;;;;;2.50;1.02;;;21.70;46.10;;;;;;6245490;23;20040;-76
2022/06/03 14:42:19;;;;;;;3.03;0.63;;;21.50;46.60;;;;;;6189202;23;20458;-75
2022/06/03 14:44:46;;;;;;;3.78;0.70;;;22.00;46.60;;;;;;6218828;23;20008;-75
2022/06/03 14:47:20;;;;;;;3.30;0.75;;;22.20;44.90;;;;;;6219905;23;20040;-76
2022/06/03 14:49:53;;;;;;;2.63;0.80;;;22.30;44.70;;;;;;6220126;23;20083;-77
2022/06/03 14:52:40;;;;;;;2.85;0.80;;;21.90;46.20;;;;;;6220608;23;20315;-75
2022/06/03 14:55:14;;;;;;;2.70;0.70;;;22.10;46.40;;;;;;6219877;23;20043;-75
2022/06/03 14:57:47;;;;;;;4.05;0.90;;;22.00;44.60;;;;;;6244675;22;20070;-77
2022/06/03 15:00:38;;;;;;;4.65;1.08;;;22.10;44.80;;;;;;6219404;23;20008;-74
2022/06/03 15:03:27;;;;;;;3.50;0.70;;;21.90;47.40;;;;;;6245014;23;20014;-76
2022/06/03 15:06:03;;;;;;;4.53;0.70;;;22.20;46.80;;;;;;6246649;22;20288;-75
2022/06/03 15:08:43;;;;;;;5.97;0.60;;;22.00;46.40;;;;;;6219520;23;20051;-76
2022/06/03 15:11:18;;;;;;;4.45;0.77;;;22.50;44.90;;;;;;6219449;23;20012;-75
2022/06/03 15:13:56;;;;;;;2.28;0.60;;;22.60;45.70;;;;;;6244713;23;20012;-76
2022/06/03 15:16:27;;;;;;;3.58;0.68;;;22.70;44.20;;;;;;6220147;23;20091;-75
2022/06/03 15:18:56;;;;;;;2.92;0.60;;;22.10;45.90;;;;;;6219161;23;20008;-75
2022/06/03 15:21:32;;;;;;;8.23;0.90;;;22.20;45.10;;;;;;6220068;23;20019;-75
2022/06/03 15:24:03;;;;;;;2.45;0.70;;;22.50;45.70;;;;;;6218350;23;20015;-75
2022/06/03 15:26:43;;;;;;;3.30;0.70;;;22.80;46.00;;;;;;6221248;23;20043;-76
2022/06/03 15:29:20;;;;;;;5.72;0.85;;;22.60;45.20;;;;;;6220144;23;20319;-75
2022/06/03 15:31:50;;;;;;;5.22;0.70;;;22.80;44.10;;;;;;6219540;23;20012;-76
2022/06/03 15:34:22;;;;;;;3.70;0.77;;;22.60;45.30;;;;;;6219367;23;20016;-76
2022/06/03 15:36:57;;;;;;;3.28;0.80;;;22.60;46.40;;;;;;6244986;22;20076;-75
2022/06/03 15:39:39;;;;;;;5.80;0.60;;;22.90;42.60;;;;;;6245200;23;20434;-77
2022/06/03 15:42:24;;;;;;;3.45;0.60;;;22.90;43.10;;;;;;6244788;23;20071;-76
2022/06/03 15:45:07;;;;;;;;;;;;;;;;;;;;;
2022/06/03 15:47:58;;;;;;;2.03;0.63;;;23.00;44.80;;;;;;6244811;22;20091;-75
2022/06/03 15:50:32;;;;;;;8.45;0.80;;;22.80;45.70;;;;;;6219680;23;20026;-77
2022/06/03 15:52:59;;;;;;;3.40;0.90;;;23.20;44.30;;;;;;6195613;23;20042;-76
2022/06/03 15:55:55;;;;;;;2.53;0.57;;;23.60;43.10;;;;;;6220038;23;20019;-76
2022/06/03 15:59:00;;;;;;;4.95;0.80;;;23.50;41.50;;;;;;6244852;23;20019;-76
2022/06/03 16:01:41;;;;;;;1.88;0.55;;;23.00;43.70;;;;;;6179840;23;20089;-75
2022/06/03 16:04:33;;;;;;;3.53;0.90;;;23.20;44.90;;;;;;6219894;23;20054;-74
2022/06/03 16:18:32;;;;;;;5.20;0.70;;;22.70;45.60;;;;;;6230773;22;20016;-74
2022/06/03 16:53:27;;;;;;;10.15;1.33;;;21.40;50.30;;;;;;6245470;23;19922;-78
2022/06/03 18:08:48;;;;;;;5.80;2.42;;;16.00;72.80;;;;;;5925975;24;20525;-75
2022/06/03 18:11:36;;;;;;;10.20;2.50;;;16.10;71.70;;;;;;5871982;24;20025;-73
2022/06/03 18:14:36;;;;;;;6.90;2.58;;;16.00;72.00;;;;;;5930470;24;20013;-73
2022/06/03 18:17:15;;;;;;;6.25;2.40;;;15.60;74.30;;;;;;5962567;23;20015;-75
2022/06/03 18:19:42;;;;;;;5.70;2.58;;;15.60;72.90;;;;;;6025792;23;20011;-77
2022/06/03 18:22:35;;;;;;;5.90;3.10;;;15.50;74.90;;;;;;6072068;23;20017;-76
2022/06/03 18:25:25;;;;;;;8.77;3.42;;;15.40;75.60;;;;;;6071397;23;20215;-77
2022/06/03 18:28:09;;;;;;;7.40;3.55;;;15.20;76.60;;;;;;6071880;23;20006;-76
2022/06/03 18:30:38;;;;;;;7.78;3.70;;;15.10;77.50;;;;;;6071832;23;20010;-75
2022/06/03 18:33:37;;;;;;;11.10;3.70;;;15.00;76.20;;;;;;6072162;23;20448;-77
2022/06/03 18:36:30;;;;;;;8.55;3.60;;;15.00;78.70;;;;;;6073073;23;20025;-77
2022/06/03 18:39:14;;;;;;;7.40;3.20;;;15.00;78.10;;;;;;6107798;23;20024;-77
2022/06/03 18:41:58;;;;;;;10.35;3.70;;;15.00;79.40;;;;;;6155642;22;20441;-76
2022/06/03 18:45:05;;;;;;;10.32;3.78;;;14.80;79.80;;;;;;6225955;22;20015;-75
2022/06/03 18:47:43;;;;;;;9.35;3.70;;;14.70;81.30;;;;;;6229844;22;20430;-77
2022/06/03 18:50:37;;;;;;;11.05;4.45;;;14.70;81.70;;;;;;6250991;22;20008;-77
2022/06/03 18:53:38;;;;;;;9.90;4.15;;;14.50;82.30;;;;;;6249874;22;20015;-74
2022/06/03 18:56:46;;;;;;;11.85;4.85;;;14.40;82.90;;;;;;6248666;22;20008;-74
2022/06/03 18:59:11;;;;;;;9.45;5.10;;;14.30;83.70;;;;;;6228982;22;20451;-75
2022/06/03 19:16:53;;;;;;;12.70;4.93;;;13.80;85.40;;;;;;6253326;22;20011;-72
2022/06/03 19:19:59;;;;;;;9.63;5.10;;;13.80;85.00;;;;;;6249296;22;20461;-74
2022/06/03 19:23:09;;;;;;;12.43;5.40;;;13.70;86.20;;;;;;6247752;22;20057;-74
2022/06/03 19:25:43;;;;;;;9.40;5.38;;;13.60;87.40;;;;;;6247324;22;20458;-75
2022/06/03 19:28:52;;;;;;;12.23;5.45;;;13.60;87.00;;;;;;6248729;22;20046;-76
2022/06/03 19:32:09;;;;;;;9.23;5.35;;;13.50;88.10;;;;;;6248925;22;20004;-78
2022/06/03 19:34:53;;;;;;;13.80;5.55;;;13.40;86.50;;;;;;6276184;22;20018;-75
2022/06/03 19:37:38;;;;;;;13.20;5.63;;;13.30;87.60;;;;;;6249083;22;20069;-76
2022/06/03 19:40:27;;;;;;;13.93;6.15;;;13.20;88.90;;;;;;6224331;22;20020;-73
2022/06/03 19:42:53;;;;;;;13.45;7.13;;;13.10;90.00;;;;;;6249171;22;20430;-72
2022/06/03 19:45:25;;;;;;;13.27;6.45;;;13.10;89.60;;;;;;6223980;22;20019;-73
2022/06/03 19:48:14;;;;;;;14.30;6.10;;;13.10;89.00;;;;;;6224567;22;20008;-74
2022/06/03 19:51:04;;;;;;;11.00;6.47;;;13.00;89.20;;;;;;6224374;22;20012;-74
2022/06/03 19:53:54;;;;;;;9.75;6.35;;;13.00;90.00;;;;;;6249212;22;20450;-75
2022/06/03 19:56:26;;;;;;;12.10;6.43;;;12.90;90.50;;;;;;6249422;22;20012;-74
2022/06/03 19:59:07;;;;;;;12.50;7.18;;;12.80;90.00;;;;;;6224319;22;20291;-73
2022/06/03 20:01:35;;;;;;;15.48;7.13;;;12.70;90.60;;;;;;6223660;22;20062;-75
2022/06/03 20:04:32;;;;;;;14.48;7.00;;;12.70;90.50;;;;;;6223739;22;20333;-74
2022/06/03 20:07:55;;;;;;;10.15;6.95;;;12.60;90.80;;;;;;6248538;22;20492;-79
2022/06/03 20:10:39;;;;;;;15.32;7.60;;;12.50;91.30;;;;;;6248300;22;20011;-75
2022/06/03 20:13:25;;;;;;;13.02;7.70;;;12.20;91.50;;;;;;6249271;22;20065;-77
2022/06/03 20:45:51;;;;;;;20.90;10.18;;;11.90;92.60;;;;;;6277493;22;20031;-75
2022/06/03 20:59:42;;;;;;;23.85;12.88;;;11.80;92.60;;;;;;6245387;23;20012;-78
2022/06/03 21:02:19;;;;;;;23.42;11.65;;;11.80;92.90;;;;;;6221949;23;20008;-81
2022/06/03 21:26:44;;;;;;;20.48;12.40;;;11.50;92.80;;;;;;6241002;22;20338;-77
2022/06/03 21:36:30;;;;;;;22.98;12.57;;;11.40;93.20;;;;;;6124711;23;20017;-74
2022/06/03 21:39:23;;;;;;;21.98;12.77;;;11.40;93.50;;;;;;6077409;23;20010;-76
2022/06/03 21:41:49;;;;;;;20.80;12.27;;;11.30;93.40;;;;;;6250759;22;20030;-78
2022/06/03 21:44:31;;;;;;;19.95;11.93;;;11.30;93.50;;;;;;6225226;22;20003;-78
2022/06/03 21:47:35;;;;;;;19.48;10.88;;;11.30;94.00;;;;;;6225414;22;20311;-77
2022/06/03 21:50:17;;;;;;;22.70;11.48;;;11.30;93.90;;;;;;6225200;22;20418;-78
2022/06/03 21:53:36;;;;;;;;;;;;;;;;;;;;;
2022/06/03 22:00:14;;;;;;;22.48;11.50;;;11.20;93.50;;;;;;6276958;22;20038;-78
2022/06/03 22:06:37;;;;;;;17.58;10.25;;;11.20;93.90;;;;;;6098866;23;20010;-82
2022/06/03 22:09:06;;;;;;;17.77;10.45;;;11.20;93.80;;;;;;6076064;23;20045;-80
2022/06/03 22:14:16;;;;;;;15.88;9.90;;;11.20;93.50;;;;;;6250380;22;20023;-80
2022/06/03 22:16:45;;;;;;;18.75;9.55;;;11.20;94.10;;;;;;6250609;22;20016;-78
2022/06/03 22:19:12;;;;;;;19.70;8.52;;;11.20;93.70;;;;;;6250853;22;20064;-79
2022/06/03 22:21:38;;;;;;;14.00;8.10;;;11.20;93.60;;;;;;6250668;22;20018;-79